Time;durP1;ratioP1;P1;durP2;ratioP2;P2;SDS_P1;SDS_P2;PMS_P1;PMS_P2;Temp;Humidity;BMP_temperature;BMP_pressure;BME280_temperature;BME280_humidity;BME280_pressure;Samples;Min_cycle;Max_cycle;Signal;HPM_P1;HPM_P2
2022/10/14 00:02:50;;;;;;;17.23;8.95;;;13.80;99.90;;;;;;5032029;28;20049;-65
2022/10/14 00:05:55;;;;;;;14.02;8.77;;;13.80;99.90;;;;;;5032137;28;20044;-66
2022/10/14 00:09:01;;;;;;;16.52;9.85;;;13.80;99.90;;;;;;5032157;28;20499;-66
2022/10/14 00:12:06;;;;;;;14.13;9.55;;;13.80;99.90;;;;;;5032021;28;20048;-65
2022/10/14 00:15:10;;;;;;;14.88;9.38;;;13.80;99.90;;;;;;5031557;28;20044;-65
2022/10/14 00:18:14;;;;;;;17.50;9.50;;;13.80;99.90;;;;;;5031722;28;20037;-65
2022/10/14 00:21:18;;;;;;;19.67;9.75;;;13.80;99.90;;;;;;5031819;28;20052;-65
2022/10/14 00:24:22;;;;;;;17.98;9.85;;;13.80;99.90;;;;;;5031466;28;20041;-66
2022/10/14 00:27:26;;;;;;;14.15;8.73;;;13.70;99.90;;;;;;5031772;28;20045;-65
2022/10/14 00:30:30;;;;;;;16.40;8.50;;;13.60;99.90;;;;;;5031885;28;20044;-65
2022/10/14 00:33:36;;;;;;;16.80;10.18;;;13.60;99.90;;;;;;5031014;28;20045;-65
2022/10/14 00:36:41;;;;;;;15.27;8.93;;;13.60;99.90;;;;;;5019365;28;20052;-65
2022/10/14 00:39:48;;;;;;;14.82;9.93;;;13.50;99.90;;;;;;5030900;28;20052;-65
2022/10/14 00:42:52;;;;;;;17.35;9.90;;;13.40;99.90;;;;;;5031368;28;20048;-66
2022/10/14 00:45:56;;;;;;;24.23;10.73;;;13.40;99.90;;;;;;5019320;28;20389;-65
2022/10/14 00:49:08;;;;;;;25.83;14.18;;;13.30;99.90;;;;;;5031647;28;20047;-65
2022/10/14 00:52:18;;;;;;;16.67;11.60;;;13.30;99.90;;;;;;5031445;28;20072;-65
2022/10/14 00:55:22;;;;;;;31.27;13.70;;;13.20;99.90;;;;;;5031022;28;20052;-65
2022/10/14 00:58:26;;;;;;;25.50;13.07;;;13.10;99.90;;;;;;5019065;28;20056;-65
2022/10/14 01:01:30;;;;;;;26.88;12.40;;;13.00;99.90;;;;;;5031238;28;20049;-65
2022/10/14 01:04:41;;;;;;;23.85;11.90;;;12.90;99.90;;;;;;5030597;28;20582;-65
2022/10/14 01:08:09;;;;;;;26.17;12.85;;;12.90;99.90;;;;;;5030826;28;20043;-65
2022/10/14 01:11:42;;;;;;;22.42;13.43;;;12.90;99.90;;;;;;5031239;28;20384;-65
2022/10/14 01:14:58;;;;;;;;;;;12.90;99.90;;;;;;5032445;28;20052;-64
2022/10/14 01:18:34;;;;;;;23.83;12.80;;;12.90;99.90;;;;;;5031262;28;19920;-65
2022/10/14 01:21:51;;;;;;;21.70;13.20;;;12.90;99.90;;;;;;5018908;28;20052;-65
2022/10/14 01:25:23;;;;;;;26.98;15.15;;;12.80;99.90;;;;;;5030722;28;20385;-65
2022/10/14 01:28:50;;;;;;;33.03;15.65;;;12.80;99.90;;;;;;5019061;28;20048;-65
2022/10/14 01:32:03;;;;;;;35.60;16.45;;;12.80;99.90;;;;;;5031184;28;20507;-65
2022/10/14 01:35:10;;;;;;;29.23;17.40;;;12.80;99.90;;;;;;5018020;28;20049;-65
2022/10/14 01:38:25;;;;;;;34.75;17.83;;;12.80;99.90;;;;;;5029881;28;20040;-65
2022/10/14 01:41:42;;;;;;;42.05;19.23;;;12.80;99.90;;;;;;5030010;28;20124;-65
2022/10/14 01:45:05;;;;;;;32.45;18.33;;;12.80;99.90;;;;;;5030413;28;20041;-65
2022/10/14 01:48:10;;;;;;;33.95;19.33;;;12.80;99.90;;;;;;5030745;28;20036;-65
2022/10/14 01:51:20;;;;;;;31.40;17.92;;;12.80;99.90;;;;;;5030978;28;20049;-65
2022/10/14 01:54:32;;;;;;;29.92;17.10;;;12.80;99.90;;;;;;5018349;28;20044;-65
2022/10/14 01:57:39;;;;;;;32.55;16.75;;;12.80;99.90;;;;;;5030887;28;20041;-65
2022/10/14 02:00:46;;;;;;;35.85;19.60;;;12.80;99.90;;;;;;5018379;28;20404;-65
2022/10/14 02:03:50;;;;;;;28.25;17.30;;;12.90;99.90;;;;;;5006489;28;20052;-65
2022/10/14 02:07:12;;;;;;;30.60;17.70;;;12.90;99.90;;;;;;5018401;28;20048;-65
2022/10/14 02:10:53;;;;;;;31.70;18.42;;;12.80;99.90;;;;;;5029632;28;20041;-65
2022/10/14 02:14:02;;;;;;;34.25;19.13;;;12.80;99.90;;;;;;5034421;28;20056;-65
2022/10/14 02:17:18;;;;;;;46.30;20.20;;;12.80;99.90;;;;;;5029782;28;20048;-65
2022/10/14 02:20:31;;;;;;;34.70;19.42;;;12.80;99.90;;;;;;5021069;28;20053;-65
2022/10/14 02:24:09;;;;;;;31.95;17.45;;;12.80;99.90;;;;;;5024394;28;20068;-65
2022/10/14 02:27:17;;;;;;;30.83;18.73;;;12.70;99.90;;;;;;5021845;28;20056;-65
2022/10/14 02:30:21;;;;;;;41.42;17.38;;;12.60;99.90;;;;;;5021875;28;20048;-65
2022/10/14 02:33:41;;;;;;;32.15;19.77;;;12.60;99.90;;;;;;5033179;28;20056;-65
2022/10/14 02:36:46;;;;;;;33.58;19.52;;;12.50;99.90;;;;;;5021586;28;20551;-65
2022/10/14 02:40:03;;;;;;;34.42;19.13;;;12.40;99.90;;;;;;5033666;28;20045;-65
2022/10/14 02:43:10;;;;;;;36.22;21.10;;;12.40;99.90;;;;;;5032598;28;20044;-65
2022/10/14 02:46:14;;;;;;;35.72;21.33;;;12.40;99.90;;;;;;5033799;28;20064;-65
2022/10/14 02:49:18;;;;;;;36.47;20.55;;;12.40;99.90;;;;;;5032852;28;20500;-65
2022/10/14 02:52:22;;;;;;;33.88;19.63;;;12.50;99.90;;;;;;5021103;28;20060;-65
2022/10/14 02:55:26;;;;;;;30.85;18.58;;;12.60;99.90;;;;;;5033215;28;20052;-65
2022/10/14 02:58:31;;;;;;;31.23;18.50;;;12.60;99.90;;;;;;5021321;28;20044;-65
2022/10/14 03:01:35;;;;;;;29.83;17.98;;;12.70;99.90;;;;;;5033171;28;20052;-65
2022/10/14 03:04:40;;;;;;;32.28;18.90;;;12.70;99.90;;;;;;5032150;28;20040;-66
2022/10/14 03:07:45;;;;;;;26.88;16.83;;;12.70;99.90;;;;;;5020981;28;20503;-65
2022/10/14 03:10:51;;;;;;;27.75;17.23;;;12.70;99.90;;;;;;5020826;28;20045;-65
2022/10/14 03:13:55;;;;;;;32.75;17.75;;;12.70;99.90;;;;;;5032799;28;20053;-65
2022/10/14 03:16:59;;;;;;;34.50;19.50;;;12.60;99.90;;;;;;5032287;28;20460;-65
2022/10/14 03:20:07;;;;;;;35.20;16.92;;;12.50;99.90;;;;;;5020754;28;20057;-65
2022/10/14 03:23:19;;;;;;;32.53;16.95;;;12.50;99.90;;;;;;5031534;28;20041;-65
2022/10/14 03:26:27;;;;;;;28.80;17.80;;;12.30;99.90;;;;;;5020710;28;20388;-65
2022/10/14 03:29:32;;;;;;;30.70;18.05;;;12.20;99.90;;;;;;5020293;28;20491;-65
2022/10/14 03:32:52;;;;;;;30.77;17.48;;;12.20;99.90;;;;;;5031925;28;20052;-66
2022/10/14 03:36:19;;;;;;;29.20;16.95;;;12.20;99.90;;;;;;5033966;28;20056;-65
2022/10/14 03:39:28;;;;;;;29.85;17.00;;;12.30;99.90;;;;;;5028923;28;20389;-66
2022/10/14 03:42:40;;;;;;;28.73;17.25;;;12.20;99.90;;;;;;5020167;28;20045;-66
2022/10/14 03:45:45;;;;;;;33.35;18.10;;;12.10;99.90;;;;;;5032603;28;20045;-66
2022/10/14 03:48:51;;;;;;;38.80;21.95;;;11.90;99.90;;;;;;5031537;28;20040;-66
2022/10/14 03:51:55;;;;;;;41.83;22.50;;;11.80;99.90;;;;;;5019936;28;20048;-66
2022/10/14 03:55:03;;;;;;;44.10;23.02;;;11.00;99.90;;;;;;5019891;28;20048;-65
2022/10/14 03:58:09;;;;;;;39.58;22.50;;;11.60;99.90;;;;;;5031706;28;20372;-65
2022/10/14 04:01:13;;;;;;;37.20;22.13;;;11.50;99.90;;;;;;5020042;28;20403;-65
2022/10/14 04:04:40;;;;;;;36.28;20.23;;;11.50;99.90;;;;;;5019617;28;20060;-65
2022/10/14 04:07:45;;;;;;;34.95;20.05;;;11.50;99.90;;;;;;5032138;28;20044;-65
2022/10/14 04:10:53;;;;;;;38.58;19.42;;;11.50;99.90;;;;;;5019904;28;20491;-65
2022/10/14 04:13:58;;;;;;;34.00;19.35;;;11.40;99.90;;;;;;5030684;28;20045;-65
2022/10/14 04:17:04;;;;;;;33.35;20.20;;;11.40;99.90;;;;;;5019835;28;20048;-65
2022/10/14 04:20:09;;;;;;;33.42;19.80;;;11.40;99.90;;;;;;5019580;28;20048;-65
2022/10/14 04:23:14;;;;;;;35.05;18.58;;;11.40;99.90;;;;;;5030483;28;20080;-65
2022/10/14 04:26:20;;;;;;;34.47;18.85;;;11.40;99.90;;;;;;5031187;28;20056;-65
2022/10/14 04:29:24;;;;;;;41.42;20.25;;;11.40;99.90;;;;;;5031887;28;20041;-65
2022/10/14 04:32:34;;;;;;;33.85;20.70;;;11.50;99.90;;;;;;5030028;28;20048;-65
2022/10/14 04:35:38;;;;;;;39.20;19.75;;;11.50;99.90;;;;;;5030847;28;20044;-65
2022/10/14 04:38:46;;;;;;;40.33;23.23;;;11.50;99.90;;;;;;5019301;28;20068;-65
2022/10/14 04:41:50;;;;;;;43.53;23.80;;;11.50;99.90;;;;;;5018337;28;20040;-65
2022/10/14 04:44:57;;;;;;;45.08;26.25;;;11.60;99.90;;;;;;5019138;28;20396;-65
2022/10/14 04:48:11;;;;;;;41.00;24.45;;;11.60;99.90;;;;;;5019596;28;20056;-65
2022/10/14 04:51:20;;;;;;;46.22;26.25;;;11.60;99.90;;;;;;5030849;28;20052;-65
2022/10/14 04:54:43;;;;;;;48.00;25.05;;;11.70;99.90;;;;;;5031404;28;20503;-65
2022/10/14 04:57:47;;;;;;;48.35;25.67;;;11.70;99.90;;;;;;5019105;28;20432;-65
2022/10/14 05:00:53;;;;;;;43.85;23.83;;;11.60;99.90;;;;;;5019301;28;20044;-65
2022/10/14 05:04:06;;;;;;;46.30;26.17;;;11.60;99.90;;;;;;5018743;28;20515;-65
2022/10/14 05:07:13;;;;;;;40.53;24.05;;;11.60;99.90;;;;;;5019094;28;20393;-65
2022/10/14 05:10:18;;;;;;;47.38;24.20;;;11.60;99.90;;;;;;5030421;28;20044;-65
2022/10/14 05:13:22;;;;;;;48.80;26.50;;;11.50;99.90;;;;;;5030271;28;20121;-65
2022/10/14 05:16:36;;;;;;;52.35;27.02;;;11.60;99.90;;;;;;5018915;28;20048;-65
2022/10/14 05:19:40;;;;;;;49.88;27.35;;;11.50;99.90;;;;;;5019643;28;20053;-65
2022/10/14 05:22:45;;;;;;;42.28;25.52;;;11.40;99.90;;;;;;5019424;28;20519;-65
2022/10/14 05:25:50;;;;;;;47.97;26.58;;;11.30;99.90;;;;;;5031830;28;20049;-65
2022/10/14 05:28:54;;;;;;;50.58;26.70;;;11.20;99.90;;;;;;5019414;28;20044;-65
2022/10/14 05:31:58;;;;;;;52.38;26.40;;;11.20;99.90;;;;;;5018937;28;20164;-65
2022/10/14 05:35:23;;;;;;;82.88;26.95;;;11.10;99.90;;;;;;5031198;28;20061;-65
2022/10/14 05:38:31;;;;;;;61.72;29.70;;;11.00;99.90;;;;;;5022832;28;20048;-66
2022/10/14 05:41:35;;;;;;;52.92;26.75;;;11.00;99.90;;;;;;5031649;28;20053;-66
2022/10/14 05:44:40;;;;;;;60.00;27.95;;;11.00;99.90;;;;;;5018677;28;20075;-66
2022/10/14 05:47:45;;;;;;;57.47;28.13;;;11.00;99.90;;;;;;5018758;28;20064;-66
2022/10/14 05:50:53;;;;;;;60.17;28.70;;;11.20;99.90;;;;;;5018698;28;20041;-66
2022/10/14 05:54:00;;;;;;;51.10;28.15;;;11.20;99.90;;;;;;5032042;28;20056;-65
2022/10/14 05:57:05;;;;;;;51.13;26.65;;;11.30;99.90;;;;;;5022470;28;20526;-66
2022/10/14 06:00:09;;;;;;;46.50;24.25;;;11.50;99.90;;;;;;5022223;28;20043;-65
2022/10/14 06:03:20;;;;;;;60.97;24.40;;;11.80;99.90;;;;;;5032881;28;20044;-66
2022/10/14 06:06:26;;;;;;;42.13;23.25;;;11.70;99.90;;;;;;5037402;28;20295;-66
2022/10/14 06:09:30;;;;;;;43.50;22.25;;;11.90;99.90;;;;;;5020427;28;20036;-66
2022/10/14 06:12:35;;;;;;;35.90;18.40;;;13.60;99.90;;;;;;5028528;28;20048;-65
2022/10/14 06:15:39;;;;;;;36.08;16.58;;;16.20;99.90;;;;;;5033157;28;20423;-66
2022/10/14 06:18:43;;;;;;;25.55;12.32;;;18.60;99.90;;;;;;5029644;28;20044;-66
2022/10/14 06:21:48;;;;;;;26.98;12.45;;;20.90;99.90;;;;;;5027643;28;20048;-66
2022/10/14 06:24:52;;;;;;;25.70;12.77;;;22.50;99.90;;;;;;5028959;28;20057;-66
2022/10/14 06:28:03;;;;;;;25.85;15.05;;;23.40;99.90;;;;;;5030641;28;20044;-66
2022/10/14 06:31:07;;;;;;;97.60;17.00;;;19.80;99.90;;;;;;5032427;28;20060;-65
2022/10/14 06:34:11;;;;;;;33.58;15.20;;;18.30;99.90;;;;;;5035409;28;20059;-66
2022/10/14 06:37:16;;;;;;;39.30;13.25;;;17.70;99.90;;;;;;5033711;28;20076;-66
2022/10/14 06:40:20;;;;;;;21.85;13.73;;;17.10;99.90;;;;;;5033134;28;20049;-66
2022/10/14 06:43:24;;;;;;;22.02;14.20;;;16.80;99.90;;;;;;5032036;28;20037;-66
2022/10/14 06:46:29;;;;;;;22.13;13.85;;;15.00;99.90;;;;;;5033408;28;20045;-66
2022/10/14 06:49:33;;;;;;;27.83;15.40;;;16.00;99.90;;;;;;5033472;28;20040;-66
2022/10/14 06:52:37;;;;;;;31.50;16.63;;;16.30;99.90;;;;;;5033477;28;20395;-66
2022/10/14 06:55:42;;;;;;;41.55;18.55;;;17.00;99.90;;;;;;5033320;28;20056;-66
2022/10/14 06:58:45;;;;;;;79.30;17.65;;;17.70;99.90;;;;;;5029600;28;20447;-66
2022/10/14 07:01:49;;;;;;;28.90;16.05;;;19.00;99.90;;;;;;5027376;28;20040;-66
2022/10/14 07:04:53;;;;;;;20.08;13.88;;;20.20;99.90;;;;;;5012353;28;20040;-66
2022/10/14 07:07:57;;;;;;;18.08;12.93;;;21.80;99.90;;;;;;5028934;28;20036;-66
2022/10/14 07:11:01;;;;;;;14.57;10.32;;;23.80;99.90;;;;;;5027024;28;20040;-67
2022/10/14 07:14:05;;;;;;;16.45;11.25;;;25.90;99.90;;;;;;5031677;28;20044;-67
2022/10/14 07:17:09;;;;;;;16.40;10.82;;;28.10;98.20;;;;;;5032443;28;20057;-67
2022/10/14 07:20:15;;;;;;;19.48;11.68;;;28.20;98.40;;;;;;5031098;28;20044;-66
2022/10/14 07:23:18;;;;;;;18.27;12.18;;;28.80;96.50;;;;;;5030536;28;20044;-66
2022/10/14 07:26:23;;;;;;;15.95;10.52;;;28.40;95.60;;;;;;5018829;28;20037;-66
2022/10/14 07:29:27;;;;;;;14.48;10.88;;;26.00;96.40;;;;;;5024834;28;20053;-66
2022/10/14 07:32:35;;;;;;;14.07;10.85;;;25.70;97.10;;;;;;5029869;28;20045;-66
2022/10/14 07:35:40;;;;;;;17.13;11.77;;;24.70;98.20;;;;;;5031651;28;20409;-66
2022/10/14 07:38:44;;;;;;;15.23;10.60;;;24.80;98.90;;;;;;5030567;28;20058;-66
2022/10/14 07:41:48;;;;;;;14.18;10.52;;;25.70;97.90;;;;;;5014704;28;20036;-67
2022/10/14 07:44:53;;;;;;;15.10;10.50;;;26.30;97.30;;;;;;5024062;28;20053;-66
2022/10/14 07:47:57;;;;;;;12.02;9.52;;;28.20;96.20;;;;;;5030934;28;20045;-67
2022/10/14 07:51:01;;;;;;;21.27;10.52;;;27.00;95.70;;;;;;5029084;28;21463;-66
2022/10/14 07:54:10;;;;;;;15.95;9.77;;;26.40;95.70;;;;;;5029857;28;20523;-66
2022/10/14 07:57:16;;;;;;;15.75;9.45;;;26.20;96.60;;;;;;5032384;28;20049;-66
2022/10/14 08:00:20;;;;;;;13.20;8.32;;;27.50;95.60;;;;;;5032146;28;20048;-67
2022/10/14 08:03:24;;;;;;;11.48;9.13;;;29.30;94.70;;;;;;5030304;28;20044;-66
2022/10/14 08:06:28;;;;;;;11.43;8.57;;;30.90;93.50;;;;;;5027520;28;20048;-66
2022/10/14 08:09:35;;;;;;;11.68;8.52;;;32.60;91.80;;;;;;5030690;28;20401;-67
2022/10/14 08:12:39;;;;;;;13.60;8.15;;;33.70;90.60;;;;;;5027114;28;20036;-66
2022/10/14 08:15:43;;;;;;;11.43;8.02;;;34.60;88.40;;;;;;5027181;28;20064;-66
2022/10/14 08:18:48;;;;;;;10.68;7.55;;;34.40;85.80;;;;;;5033499;28;20068;-67
2022/10/14 08:21:53;;;;;;;16.63;9.00;;;31.00;86.20;;;;;;5027977;28;20503;-66
2022/10/14 08:24:57;;;;;;;13.05;8.60;;;27.30;91.70;;;;;;5031036;28;20044;-66
2022/10/14 08:28:01;;;;;;;12.65;8.32;;;27.30;92.00;;;;;;5035128;28;20047;-66
2022/10/14 08:31:06;;;;;;;13.88;8.40;;;27.00;93.20;;;;;;5030382;28;20068;-66
2022/10/14 08:34:10;;;;;;;10.82;7.65;;;27.80;92.30;;;;;;5035950;28;20502;-66
2022/10/14 08:37:14;;;;;;;11.43;8.68;;;30.50;91.10;;;;;;5029113;28;20038;-66
2022/10/14 08:40:18;;;;;;;10.95;7.88;;;32.10;89.30;;;;;;5021179;28;20056;-66
2022/10/14 08:43:45;;;;;;;10.85;7.50;;;31.90;88.20;;;;;;5030503;28;20044;-66
2022/10/14 08:47:01;;;;;;;12.70;8.25;;;31.60;88.80;;;;;;5038812;28;20392;-66
2022/10/14 08:50:24;;;;;;;11.27;8.07;;;32.60;86.00;;;;;;5028837;28;20045;-66
2022/10/14 08:53:34;;;;;;;9.43;7.28;;;33.60;85.90;;;;;;5023661;28;20043;-66
2022/10/14 08:56:38;;;;;;;9.75;7.13;;;35.20;83.40;;;;;;5024879;28;20044;-66
2022/10/14 08:59:43;;;;;;;8.38;6.07;;;35.20;82.40;;;;;;5029245;28;20052;-66
2022/10/14 09:02:50;;;;;;;9.77;6.72;;;33.40;83.50;;;;;;5030019;28;20049;-66
2022/10/14 09:06:00;;;;;;;10.75;6.70;;;34.20;82.80;;;;;;5030592;28;20044;-66
2022/10/14 09:09:16;;;;;;;9.00;7.45;;;34.50;82.90;;;;;;5032148;28;20048;-66
2022/10/14 09:12:25;;;;;;;11.25;7.25;;;34.00;81.40;;;;;;5027257;28;20041;-66
2022/10/14 09:15:38;;;;;;;11.15;7.88;;;35.00;81.30;;;;;;5029279;28;20036;-67
2022/10/14 09:18:59;;;;;;;10.20;6.88;;;35.00;80.10;;;;;;5027154;28;20049;-66
2022/10/14 09:22:10;;;;;;;;;;;34.60;81.00;;;;;;5029003;28;20037;-67
2022/10/14 09:25:15;;;;;;;15.00;8.35;;;33.90;81.90;;;;;;5012408;28;20384;-67
2022/10/14 09:28:23;;;;;;;9.65;7.25;;;31.90;82.90;;;;;;5032219;28;20057;-67
2022/10/14 09:31:27;;;;;;;12.77;8.52;;;34.00;82.50;;;;;;5034816;28;20036;-66
2022/10/14 09:34:43;;;;;;;11.85;8.32;;;31.80;82.80;;;;;;5034050;28;20044;-66
2022/10/14 09:37:47;;;;;;;12.02;8.10;;;31.80;83.20;;;;;;5030637;28;20120;-67
2022/10/14 09:40:58;;;;;;;13.18;7.32;;;33.80;82.90;;;;;;5034536;28;20052;-67
2022/10/14 09:44:20;;;;;;;10.15;6.45;;;36.80;80.50;;;;;;5034278;28;20049;-67
2022/10/14 09:47:25;;;;;;;10.98;7.47;;;37.90;76.40;;;;;;5031639;28;20049;-67
2022/10/14 09:50:31;;;;;;;13.43;6.78;;;38.90;75.70;;;;;;5031510;28;20033;-66
2022/10/14 09:53:44;;;;;;;11.35;7.35;;;39.70;74.10;;;;;;5026725;28;20041;-67
2022/10/14 09:57:07;;;;;;;11.25;6.07;;;40.70;72.40;;;;;;5034407;28;20502;-67
2022/10/14 10:00:27;;;;;;;9.98;6.78;;;41.30;70.70;;;;;;5027818;28;20398;-67
2022/10/14 10:03:34;;;;;;;10.32;6.07;;;40.10;69.00;;;;;;5026622;28;20516;-67
2022/10/14 10:06:51;;;;;;;9.65;6.30;;;40.90;69.80;;;;;;5028729;28;20040;-65
2022/10/14 10:09:57;;;;;;;9.65;6.50;;;42.00;67.80;;;;;;5028923;28;20040;-66
2022/10/14 10:13:02;;;;;;;10.82;7.10;;;36.50;69.40;;;;;;5032224;28;20455;-66
2022/10/14 10:16:15;;;;;;;8.95;6.43;;;36.40;70.00;;;;;;5019662;28;20048;-67
2022/10/14 10:19:30;;;;;;;13.18;6.65;;;38.00;69.30;;;;;;5030906;28;20044;-66
2022/10/14 10:22:37;;;;;;;12.63;6.47;;;38.90;70.00;;;;;;5029066;28;20048;-67
2022/10/14 10:25:41;;;;;;;6.68;5.80;;;39.00;68.00;;;;;;5032656;28;20052;-66
2022/10/14 10:28:48;;;;;;;10.90;6.10;;;39.00;68.70;;;;;;5032986;28;20045;-66
2022/10/14 10:32:06;;;;;;;9.18;6.18;;;40.20;67.10;;;;;;5033312;28;20037;-66
2022/10/14 10:35:28;;;;;;;8.00;5.65;;;41.30;66.40;;;;;;5029864;28;20048;-66
2022/10/14 10:38:46;;;;;;;9.27;5.57;;;42.10;65.50;;;;;;5026950;28;20068;-66
2022/10/14 10:42:24;;;;;;;12.10;5.43;;;41.50;65.80;;;;;;5031995;28;20048;-67
2022/10/14 10:45:55;;;;;;;9.80;5.60;;;42.20;64.90;;;;;;5028128;28;20051;-67
2022/10/14 10:49:11;;;;;;;7.93;5.07;;;42.30;63.40;;;;;;5029740;28;20048;-67
2022/10/14 10:52:18;;;;;;;6.95;4.70;;;42.40;63.80;;;;;;5032101;28;20057;-67
2022/10/14 10:55:38;;;;;;;6.55;4.97;;;42.80;62.90;;;;;;5028919;28;20048;-66
2022/10/14 10:59:05;;;;;;;10.98;5.05;;;43.40;63.00;;;;;;5028377;28;20040;-67
2022/10/14 11:02:44;;;;;;;12.90;5.93;;;43.90;62.50;;;;;;5028364;28;20040;-67
2022/10/14 11:05:51;;;;;;;;;;;41.80;62.00;;;;;;5028671;28;20060;-66
2022/10/14 11:12:47;;;;;;;9.75;5.28;;;41.10;63.60;;;;;;5013836;28;20045;-67
2022/10/14 11:16:37;;;;;;;9.88;4.97;;;41.20;62.40;;;;;;5025495;28;20126;-67
2022/10/14 11:19:50;;;;;;;8.13;5.00;;;40.20;64.00;;;;;;5022789;28;20049;-67
2022/10/14 11:23:08;;;;;;;8.77;5.55;;;40.50;64.90;;;;;;5027774;28;20036;-67
2022/10/14 11:26:27;;;;;;;9.50;4.65;;;41.20;64.00;;;;;;5031141;28;20052;-67
2022/10/14 11:30:01;;;;;;;7.57;5.33;;;41.30;62.40;;;;;;5026617;28;20036;-67
2022/10/14 11:33:20;;;;;;;10.65;4.53;;;42.40;62.50;;;;;;5020127;28;20495;-67
2022/10/14 11:36:48;;;;;;;7.25;5.07;;;42.90;61.50;;;;;;5023043;28;20040;-67
2022/10/14 11:40:22;;;;;;;8.63;5.40;;;42.80;62.40;;;;;;5025556;28;20048;-66
2022/10/14 11:43:31;;;;;;;9.73;5.82;;;43.10;62.30;;;;;;5012365;28;20049;-67
2022/10/14 11:46:41;;;;;;;9.55;6.40;;;42.90;62.20;;;;;;5029824;28;20037;-67
2022/10/14 11:49:56;;;;;;;9.05;5.38;;;43.10;62.60;;;;;;5026678;28;20048;-66
2022/10/14 11:53:08;;;;;;;8.93;5.20;;;42.90;61.50;;;;;;5027595;28;20045;-67
2022/10/14 11:56:38;;;;;;;10.70;5.20;;;42.20;62.60;;;;;;5027443;28;20496;-67
2022/10/14 11:59:54;;;;;;;9.38;5.28;;;43.20;61.90;;;;;;5029560;28;20056;-66
2022/10/14 12:03:18;;;;;;;8.27;4.72;;;41.50;61.10;;;;;;5027651;28;20040;-66
2022/10/14 12:06:33;;;;;;;12.20;5.03;;;42.30;62.40;;;;;;5027229;28;20036;-67
2022/10/14 12:10:11;;;;;;;6.93;4.47;;;42.30;61.00;;;;;;5028863;28;20047;-67
2022/10/14 12:13:21;;;;;;;9.88;4.78;;;42.30;60.80;;;;;;5025932;28;20048;-67
2022/10/14 12:16:26;;;;;;;6.10;4.05;;;42.20;61.10;;;;;;5026735;28;21535;-67
2022/10/14 12:19:31;;;;;;;7.35;4.32;;;42.90;60.20;;;;;;5023677;28;20032;-67
2022/10/14 12:22:37;;;;;;;6.25;4.28;;;43.40;59.80;;;;;;5021788;28;20643;-67
2022/10/14 12:25:53;;;;;;;10.13;4.72;;;42.90;59.40;;;;;;5028250;28;20051;-67
2022/10/14 12:28:58;;;;;;;4.82;4.13;;;42.00;60.40;;;;;;5024589;28;20635;-67
2022/10/14 12:32:03;;;;;;;6.18;3.97;;;41.70;59.90;;;;;;5026823;28;20049;-66
2022/10/14 12:35:45;;;;;;;8.73;4.65;;;41.70;60.00;;;;;;5022277;28;20109;-66
2022/10/14 12:39:18;;;;;;;6.53;3.92;;;40.60;60.30;;;;;;5024065;28;20044;-66
2022/10/14 12:42:22;;;;;;;6.90;4.13;;;39.60;60.50;;;;;;5013607;28;20392;-66
2022/10/14 12:45:29;;;;;;;7.25;4.00;;;38.90;60.70;;;;;;5022801;28;20586;-67
2022/10/14 12:48:35;;;;;;;5.25;3.80;;;38.10;61.40;;;;;;5026467;28;20048;-66
2022/10/14 12:51:53;;;;;;;10.07;3.80;;;38.30;61.60;;;;;;5027216;28;20044;-66
2022/10/14 12:55:03;;;;;;;8.37;3.97;;;38.70;61.10;;;;;;5030334;28;20044;-66
2022/10/14 12:58:20;;;;;;;9.60;4.47;;;38.20;62.00;;;;;;5026373;28;20045;-66
2022/10/14 13:01:24;;;;;;;10.88;4.35;;;38.20;61.80;;;;;;5028274;28;20044;-66
2022/10/14 13:04:30;;;;;;;7.40;4.07;;;37.50;62.50;;;;;;5022748;28;20040;-67
2022/10/14 13:08:16;;;;;;;8.05;4.15;;;37.50;62.00;;;;;;5029706;28;20071;-67
2022/10/14 13:11:27;;;;;;;10.50;4.25;;;37.70;62.70;;;;;;5013409;28;20032;-66
2022/10/14 13:14:58;;;;;;;8.80;4.72;;;37.60;62.40;;;;;;5016869;28;20420;-66
2022/10/14 13:18:34;;;;;;;8.05;4.15;;;36.70;63.00;;;;;;5010568;28;20044;-66
2022/10/14 13:21:40;;;;;;;11.25;4.18;;;36.80;63.00;;;;;;5014643;28;20041;-66
2022/10/14 13:24:44;;;;;;;5.43;3.72;;;37.10;63.30;;;;;;5008034;28;20048;-66
2022/10/14 13:28:20;;;;;;;6.50;3.80;;;37.20;63.30;;;;;;5025651;28;20381;-66
2022/10/14 13:31:44;;;;;;;10.35;4.47;;;37.40;62.70;;;;;;5024262;28;20041;-66
2022/10/14 13:35:13;;;;;;;10.13;3.80;;;37.00;62.40;;;;;;4989466;28;20052;-66
2022/10/14 13:38:20;;;;;;;14.88;4.80;;;36.00;64.00;;;;;;5028237;28;20044;-66
2022/10/14 13:41:27;;;;;;;7.35;3.83;;;35.80;64.40;;;;;;5001796;28;20583;-66
2022/10/14 13:44:34;;;;;;;8.57;4.30;;;35.30;64.50;;;;;;5004424;28;20044;-66
2022/10/14 13:47:48;;;;;;;9.77;3.92;;;35.40;65.40;;;;;;5011896;28;20044;-66
2022/10/14 13:51:17;;;;;;;13.82;4.15;;;36.00;65.30;;;;;;5008304;28;20493;-66
2022/10/14 13:54:26;;;;;;;13.68;4.55;;;36.00;64.40;;;;;;5009986;28;20049;-66
2022/10/14 13:57:30;;;;;;;7.35;4.30;;;36.20;64.40;;;;;;4994547;28;20049;-66
2022/10/14 14:00:37;;;;;;;9.32;4.38;;;36.10;64.50;;;;;;5005356;28;20048;-66
2022/10/14 14:03:51;;;;;;;7.53;4.03;;;36.50;64.30;;;;;;5009861;28;20507;-66
2022/10/14 14:06:57;;;;;;;8.70;4.78;;;37.00;62.90;;;;;;5005022;28;20356;-66
2022/10/14 14:10:08;;;;;;;6.75;4.28;;;36.90;63.20;;;;;;5007244;28;20368;-66
2022/10/14 14:13:12;;;;;;;6.70;3.80;;;35.90;64.60;;;;;;5013949;28;20488;-66
2022/10/14 14:16:27;;;;;;;6.22;3.78;;;36.00;64.60;;;;;;5014092;28;20052;-66
2022/10/14 14:19:35;;;;;;;7.65;3.80;;;35.50;64.20;;;;;;5006902;28;20038;-66
2022/10/14 14:22:42;;;;;;;18.05;4.75;;;35.40;65.20;;;;;;5009695;28;20037;-66
2022/10/14 14:25:49;;;;;;;11.02;4.30;;;34.60;66.30;;;;;;5011284;28;20049;-66
2022/10/14 14:28:53;;;;;;;9.38;3.83;;;34.10;65.30;;;;;;5013232;28;20060;-65
2022/10/14 14:31:58;;;;;;;10.07;4.22;;;34.00;65.70;;;;;;5014463;28;20445;-66
2022/10/14 14:35:10;;;;;;;10.45;4.97;;;33.90;67.30;;;;;;5011329;28;20426;-67
2022/10/14 14:38:32;;;;;;;8.25;4.38;;;33.80;67.20;;;;;;5013313;28;20036;-65
2022/10/14 14:41:36;;;;;;;9.05;4.15;;;33.60;68.20;;;;;;5007356;28;20049;-66
2022/10/14 14:44:42;;;;;;;9.82;5.07;;;33.40;68.50;;;;;;5010833;28;20033;-66
2022/10/14 14:47:53;;;;;;;12.18;4.68;;;33.30;67.80;;;;;;5017903;28;20048;-66
2022/10/14 14:50:58;;;;;;;11.75;4.40;;;33.10;69.20;;;;;;5011622;28;20047;-66
2022/10/14 14:54:04;;;;;;;12.23;4.57;;;32.80;69.60;;;;;;5019510;28;20048;-66
2022/10/14 14:57:09;;;;;;;12.43;5.00;;;32.50;69.90;;;;;;5011638;28;20056;-65
2022/10/14 15:00:18;;;;;;;10.27;4.70;;;32.10;70.50;;;;;;5010177;28;20061;-65
2022/10/14 15:03:25;;;;;;;7.88;4.90;;;31.50;71.70;;;;;;5008699;28;20064;-66
2022/10/14 15:06:29;;;;;;;11.40;4.93;;;31.00;72.90;;;;;;5012291;28;20045;-66
2022/10/14 15:09:46;;;;;;;10.00;5.05;;;30.60;74.10;;;;;;5008976;28;20041;-65
2022/10/14 15:12:57;;;;;;;11.25;5.47;;;30.20;74.50;;;;;;5011573;28;20058;-66
2022/10/14 15:16:02;;;;;;;11.02;4.90;;;29.90;75.70;;;;;;5011961;28;20041;-65
2022/10/14 15:19:18;;;;;;;12.65;5.28;;;29.30;76.70;;;;;;4996950;28;20508;-66
2022/10/14 15:22:28;;;;;;;12.55;5.50;;;28.60;79.10;;;;;;5008575;28;20050;-65
2022/10/14 15:25:33;;;;;;;13.55;6.20;;;27.90;81.00;;;;;;5006458;28;20381;-65
2022/10/14 15:28:36;;;;;;;13.82;5.50;;;27.40;82.60;;;;;;5007655;28;20041;-65
2022/10/14 15:31:43;;;;;;;10.60;5.47;;;27.10;83.90;;;;;;5000410;28;20126;-65
2022/10/14 15:34:50;;;;;;;16.67;6.50;;;26.90;85.20;;;;;;5014998;28;20382;-64
2022/10/14 15:37:54;;;;;;;10.63;5.82;;;26.70;85.70;;;;;;5009084;28;20045;-65
2022/10/14 15:40:58;;;;;;;15.20;5.90;;;26.50;87.20;;;;;;5010888;28;20053;-65
2022/10/14 15:44:02;;;;;;;12.77;5.57;;;26.20;87.90;;;;;;5012005;28;20049;-65
2022/10/14 15:47:20;;;;;;;13.75;6.32;;;26.00;88.80;;;;;;5009216;28;20048;-65
2022/10/14 15:50:25;;;;;;;19.45;6.40;;;25.60;89.70;;;;;;5005754;28;20499;-65
2022/10/14 15:53:29;;;;;;;16.10;6.25;;;26.00;91.20;;;;;;5002634;28;20044;-66
2022/10/14 15:56:33;;;;;;;11.43;6.07;;;25.00;91.20;;;;;;4992983;28;20165;-67
2022/10/14 15:59:37;;;;;;;15.27;6.35;;;24.70;91.80;;;;;;4993086;28;20049;-66
2022/10/14 16:02:42;;;;;;;14.90;6.93;;;24.30;92.50;;;;;;4981073;28;20046;-66
2022/10/14 16:05:47;;;;;;;13.38;6.75;;;24.00;93.10;;;;;;4992763;28;20416;-66
2022/10/14 16:08:51;;;;;;;17.42;6.85;;;23.60;93.90;;;;;;4992981;28;20049;-66
2022/10/14 16:11:56;;;;;;;13.35;7.25;;;23.20;94.50;;;;;;4992919;28;20041;-66
2022/10/14 16:15:01;;;;;;;14.27;7.47;;;;;;;;;;4992336;28;20046;-66
2022/10/14 16:18:05;;;;;;;14.68;6.78;;;22.60;95.90;;;;;;4992795;28;20045;-66
2022/10/14 16:21:16;;;;;;;12.48;7.22;;;22.40;96.80;;;;;;4992948;28;20049;-66